Airfield :
LOGIN :

Register | Disclaimer

   EN    FR    IT 

 










Legend :    VFR   Marginal VFR   IFR   Intensive IFR   Very Intensive IFR
Visi :
Ceiling :
>= 8 km
>= 3000ft
5 to 8 km
1000 to 3000 ft
1500m to 5 km
500 to 1000 ft
800 to 1500m
200 to 500 ft
< 800m
< 200 ft
Symbols :   Thunderstorms  Fog  Heavy snow  Heavy precipitations  Wind > 20 kt
SIGMETs :     Misc.  Thunderstorms  Icing  Turbulence  Mountain Waves  Volcanic Ashes






- Airport Elevation : 390 ft
- IATA code : NQY


EGHQ - Newquay

CURRENT METAR :
  • 070750Z 35013KT 9999 BKN010 16/13 Q1031

EXPIRED METARs :
  • 070720Z 36012KT 9999 BKN010 16/14 Q1031
  • 070650Z 34014KT 320V020 9999 BKN012 16/14 Q1031
  • 070620Z 34014KT 9999 BKN010 16/14 Q1030
  • 070550Z 35015KT 320V020 9999 FEW008 BKN019 16/14 Q1030
  • 070520Z 35014KT 9999 SCT010 BKN020 16/15 Q1030

TAF TAF EGHQ
Valid from the 07 at 06:00 until the 07 at 15:00 UTC


070457Z 0706/0715 35012KT 9999 SCT020
TEMPO 0706/0715 BKN012
PROB40
TEMPO 0706/0712 BKN005
PROB30
TEMPO 0706/0712 8000 -RADZ



MET'MAP, your aeronautical weather chart ! - Copyright ORBIFLY December 2007 - Disclaimer

ORBIFLY MET'MAP TEAM :

Programming & Development : Alexandra Zaïnal
Original concept : Baudouin d'Aumeries
Technical & hardware support : Manuel Goepfert
Assistance : Marc-Olivier Méhu




SOURCES & CREDITS :

   NOAA